This is the latest recevied weather packets stored in our database for station/object EA7AIS-10. If no packets are shown the sender has not sent any weather packets the latest 10 day(s).
| Time | Temp. | Humidity | Pressure | Rain* | Wind** | Luminosity | Snow |
|---|---|---|---|---|---|---|---|
| 1777821387 | 24.44° C | 40% | 1010.7 hPa | - | - | - | - |
| 1777820487 | 25° C | 41% | 1011 hPa | - | - | - | - |
| 1777819587 | 24.44° C | 42% | 1011.1 hPa | - | - | - | - |
| 1777818687 | 25° C | 41% | 1011.3 hPa | - | - | - | - |
| 1777817787 | 24.44° C | 42% | 1011.4 hPa | - | - | - | - |
| 1777816887 | 24.44° C | 43% | 1011.6 hPa | - | - | - | - |
| 1777815986 | 25° C | 43% | 1011.6 hPa | - | - | - | - |
| 1777815087 | 24.44° C | 45% | 1011.7 hPa | - | - | - | - |
| 1777814186 | 24.44° C | 47% | 1012 hPa | - | - | - | - |
| 1777813286 | 24.44° C | 48% | 1012 hPa | - | - | - | - |
| 1777812386 | 24.44° C | 47% | 1011.9 hPa | - | - | - | - |
| 1777811486 | 24.44° C | 47% | 1012 hPa | - | - | - | - |
| 1777810586 | 24.44° C | 47% | 1012 hPa | - | - | - | - |
| 1777809686 | 25° C | 45% | 1012.2 hPa | - | - | - | - |
| 1777808786 | 25° C | 44% | 1012.3 hPa | - | - | - | - |
| 1777807886 | 24.44° C | 48% | 1012.5 hPa | - | - | - | - |
| 1777806986 | 23.89° C | 56% | 1012.7 hPa | - | - | - | - |
| 1777806086 | 23.89° C | 59% | 1012.7 hPa | - | - | - | - |
| 1777805186 | 22.78° C | 64% | 1012.9 hPa | - | - | - | - |
| 1777804286 | 23.33° C | 63% | 1012.9 hPa | - | - | - | - |
| 1777803386 | 24.44° C | 59% | 1013.1 hPa | - | - | - | - |
| 1777802486 | 25° C | 58% | 1013.1 hPa | - | - | - | - |
| 1777801585 | 25° C | 58% | 1013.2 hPa | - | - | - | - |
| 1777800686 | 25.56° C | 56% | 1013.2 hPa | - | - | - | - |
| 1777799785 | 27.22° C | 52% | 1013.2 hPa | - | - | - | - |
* Rain since midnight (hover to see other rain measurements)
** Current wind speed in m/s (hover to see current wind gust speed)